sensor_id;sensor_type;location;lat;lon;timestamp;P1;durP1;ratioP1;P2;durP2;ratioP2
56183;SDS011;42086;53.170;6.980;2022-12-20T00:01:23;7.63;;;4.97;;
56183;SDS011;42086;53.170;6.980;2022-12-20T00:03:53;8.02;;;5.47;;
56183;SDS011;42086;53.170;6.980;2022-12-20T00:06:20;7.50;;;5.15;;
56183;SDS011;42086;53.170;6.980;2022-12-20T00:08:51;8.27;;;4.65;;
56183;SDS011;42086;53.170;6.980;2022-12-20T00:11:21;8.48;;;5.20;;
56183;SDS011;42086;53.170;6.980;2022-12-20T00:13:47;8.70;;;5.20;;
56183;SDS011;42086;53.170;6.980;2022-12-20T00:16:14;8.80;;;4.85;;
56183;SDS011;42086;53.170;6.980;2022-12-20T00:18:58;7.20;;;4.75;;
56183;SDS011;42086;53.170;6.980;2022-12-20T00:21:26;6.82;;;4.90;;
56183;SDS011;42086;53.170;6.980;2022-12-20T00:23:53;8.60;;;4.90;;
56183;SDS011;42086;53.170;6.980;2022-12-20T00:26:20;6.20;;;4.35;;
56183;SDS011;42086;53.170;6.980;2022-12-20T00:28:47;8.48;;;5.32;;
56183;SDS011;42086;53.170;6.980;2022-12-20T00:31:14;8.25;;;4.95;;
56183;SDS011;42086;53.170;6.980;2022-12-20T00:33:44;7.03;;;5.00;;
56183;SDS011;42086;53.170;6.980;2022-12-20T00:36:11;8.88;;;4.90;;
56183;SDS011;42086;53.170;6.980;2022-12-20T00:38:37;7.00;;;4.68;;
56183;SDS011;42086;53.170;6.980;2022-12-20T00:43:33;6.88;;;5.15;;
56183;SDS011;42086;53.170;6.980;2022-12-20T00:45:59;8.48;;;5.22;;
56183;SDS011;42086;53.170;6.980;2022-12-20T00:48:25;7.80;;;4.75;;
56183;SDS011;42086;53.170;6.980;2022-12-20T00:50:56;8.70;;;4.88;;
56183;SDS011;42086;53.170;6.980;2022-12-20T00:53:30;7.90;;;4.55;;
56183;SDS011;42086;53.170;6.980;2022-12-20T00:55:57;7.05;;;5.20;;
56183;SDS011;42086;53.170;6.980;2022-12-20T00:58:23;8.00;;;4.38;;
56183;SDS011;42086;53.170;6.980;2022-12-20T01:00:50;7.90;;;5.13;;
56183;SDS011;42086;53.170;6.980;2022-12-20T01:03:16;8.10;;;4.53;;
56183;SDS011;42086;53.170;6.980;2022-12-20T01:05:49;6.47;;;4.85;;
56183;SDS011;42086;53.170;6.980;2022-12-20T01:08:22;8.45;;;4.78;;
56183;SDS011;42086;53.170;6.980;2022-12-20T01:13:30;7.22;;;4.78;;
56183;SDS011;42086;53.170;6.980;2022-12-20T01:16:02;8.30;;;4.80;;
56183;SDS011;42086;53.170;6.980;2022-12-20T01:18:39;7.75;;;5.07;;
56183;SDS011;42086;53.170;6.980;2022-12-20T01:21:09;7.82;;;4.65;;
56183;SDS011;42086;53.170;6.980;2022-12-20T01:23:36;8.77;;;4.60;;
56183;SDS011;42086;53.170;6.980;2022-12-20T01:26:03;5.55;;;4.20;;
56183;SDS011;42086;53.170;6.980;2022-12-20T01:28:33;8.00;;;4.82;;
56183;SDS011;42086;53.170;6.980;2022-12-20T01:30:59;8.52;;;4.60;;
56183;SDS011;42086;53.170;6.980;2022-12-20T01:33:25;6.38;;;4.40;;
56183;SDS011;42086;53.170;6.980;2022-12-20T01:35:58;7.22;;;4.57;;
56183;SDS011;42086;53.170;6.980;2022-12-20T01:38:25;7.05;;;4.40;;
56183;SDS011;42086;53.170;6.980;2022-12-20T01:40:52;6.82;;;4.50;;
56183;SDS011;42086;53.170;6.980;2022-12-20T01:43:19;8.27;;;4.68;;
56183;SDS011;42086;53.170;6.980;2022-12-20T01:45:45;8.55;;;4.45;;
56183;SDS011;42086;53.170;6.980;2022-12-20T01:48:12;8.63;;;4.80;;
56183;SDS011;42086;53.170;6.980;2022-12-20T01:50:43;8.40;;;4.28;;
56183;SDS011;42086;53.170;6.980;2022-12-20T01:53:10;9.20;;;5.10;;
56183;SDS011;42086;53.170;6.980;2022-12-20T01:55:36;7.30;;;4.38;;
56183;SDS011;42086;53.170;6.980;2022-12-20T01:58:03;8.38;;;4.47;;
56183;SDS011;42086;53.170;6.980;2022-12-20T02:00:31;7.47;;;4.85;;
56183;SDS011;42086;53.170;6.980;2022-12-20T02:03:00;8.02;;;4.72;;
56183;SDS011;42086;53.170;6.980;2022-12-20T02:05:34;8.40;;;4.70;;
56183;SDS011;42086;53.170;6.980;2022-12-20T02:08:02;6.95;;;4.40;;
56183;SDS011;42086;53.170;6.980;2022-12-20T02:10:34;7.13;;;4.55;;
56183;SDS011;42086;53.170;6.980;2022-12-20T02:16:12;5.40;;;3.60;;
56183;SDS011;42086;53.170;6.980;2022-12-20T02:18:43;8.63;;;4.70;;
56183;SDS011;42086;53.170;6.980;2022-12-20T02:24:17;7.05;;;5.20;;
56183;SDS011;42086;53.170;6.980;2022-12-20T02:27:05;5.93;;;4.30;;
56183;SDS011;42086;53.170;6.980;2022-12-20T02:30:06;8.40;;;4.28;;
56183;SDS011;42086;53.170;6.980;2022-12-20T02:35:04;5.15;;;3.40;;
56183;SDS011;42086;53.170;6.980;2022-12-20T02:37:33;8.68;;;4.85;;
56183;SDS011;42086;53.170;6.980;2022-12-20T02:39:58;6.55;;;4.05;;
56183;SDS011;42086;53.170;6.980;2022-12-20T02:42:25;6.07;;;4.80;;
56183;SDS011;42086;53.170;6.980;2022-12-20T02:44:53;6.10;;;4.18;;
56183;SDS011;42086;53.170;6.980;2022-12-20T02:47:55;7.82;;;4.07;;
56183;SDS011;42086;53.170;6.980;2022-12-20T02:50:32;5.38;;;4.10;;
56183;SDS011;42086;53.170;6.980;2022-12-20T02:53:01;6.07;;;4.20;;
56183;SDS011;42086;53.170;6.980;2022-12-20T02:55:33;7.88;;;3.95;;
56183;SDS011;42086;53.170;6.980;2022-12-20T02:58:05;5.93;;;4.18;;
56183;SDS011;42086;53.170;6.980;2022-12-20T03:00:39;7.70;;;4.85;;
56183;SDS011;42086;53.170;6.980;2022-12-20T03:03:09;8.70;;;4.90;;
56183;SDS011;42086;53.170;6.980;2022-12-20T03:05:48;7.47;;;3.67;;
56183;SDS011;42086;53.170;6.980;2022-12-20T03:08:16;7.45;;;4.53;;
56183;SDS011;42086;53.170;6.980;2022-12-20T03:10:43;6.95;;;3.92;;
56183;SDS011;42086;53.170;6.980;2022-12-20T03:13:09;8.80;;;4.70;;
56183;SDS011;42086;53.170;6.980;2022-12-20T03:15:35;7.35;;;4.13;;
56183;SDS011;42086;53.170;6.980;2022-12-20T03:18:01;7.72;;;4.85;;
56183;SDS011;42086;53.170;6.980;2022-12-20T03:20:27;6.30;;;4.32;;
56183;SDS011;42086;53.170;6.980;2022-12-20T03:22:53;6.05;;;4.38;;
56183;SDS011;42086;53.170;6.980;2022-12-20T03:25:18;7.70;;;4.40;;
56183;SDS011;42086;53.170;6.980;2022-12-20T03:27:44;8.70;;;5.00;;
56183;SDS011;42086;53.170;6.980;2022-12-20T03:30:10;9.13;;;4.47;;
56183;SDS011;42086;53.170;6.980;2022-12-20T03:32:36;7.30;;;4.60;;
56183;SDS011;42086;53.170;6.980;2022-12-20T03:35:02;5.55;;;4.28;;
56183;SDS011;42086;53.170;6.980;2022-12-20T03:37:29;6.25;;;4.90;;
56183;SDS011;42086;53.170;6.980;2022-12-20T03:39:54;9.80;;;5.25;;
56183;SDS011;42086;53.170;6.980;2022-12-20T03:42:20;9.27;;;5.13;;
56183;SDS011;42086;53.170;6.980;2022-12-20T03:44:46;9.02;;;5.30;;
56183;SDS011;42086;53.170;6.980;2022-12-20T03:47:11;9.40;;;5.43;;
56183;SDS011;42086;53.170;6.980;2022-12-20T03:49:37;10.45;;;5.30;;
56183;SDS011;42086;53.170;6.980;2022-12-20T03:52:03;9.95;;;4.95;;
56183;SDS011;42086;53.170;6.980;2022-12-20T03:54:29;7.60;;;4.78;;
56183;SDS011;42086;53.170;6.980;2022-12-20T03:56:54;7.65;;;5.13;;
56183;SDS011;42086;53.170;6.980;2022-12-20T03:59:20;8.45;;;4.72;;
56183;SDS011;42086;53.170;6.980;2022-12-20T04:01:46;9.38;;;4.80;;
56183;SDS011;42086;53.170;6.980;2022-12-20T04:04:12;11.13;;;5.45;;
56183;SDS011;42086;53.170;6.980;2022-12-20T04:06:39;7.65;;;4.82;;
56183;SDS011;42086;53.170;6.980;2022-12-20T04:09:05;8.07;;;5.32;;
56183;SDS011;42086;53.170;6.980;2022-12-20T04:11:30;8.10;;;5.20;;
56183;SDS011;42086;53.170;6.980;2022-12-20T04:13:56;8.18;;;5.18;;
56183;SDS011;42086;53.170;6.980;2022-12-20T04:16:24;7.60;;;5.40;;
56183;SDS011;42086;53.170;6.980;2022-12-20T04:18:52;11.20;;;5.10;;
56183;SDS011;42086;53.170;6.980;2022-12-20T04:21:25;9.40;;;4.90;;
56183;SDS011;42086;53.170;6.980;2022-12-20T04:23:55;7.63;;;4.20;;
56183;SDS011;42086;53.170;6.980;2022-12-20T04:26:21;9.15;;;5.35;;
56183;SDS011;42086;53.170;6.980;2022-12-20T04:28:47;8.18;;;4.90;;
56183;SDS011;42086;53.170;6.980;2022-12-20T04:31:13;8.27;;;5.05;;
56183;SDS011;42086;53.170;6.980;2022-12-20T04:33:39;10.80;;;5.55;;
56183;SDS011;42086;53.170;6.980;2022-12-20T04:36:05;8.17;;;5.37;;
56183;SDS011;42086;53.170;6.980;2022-12-20T04:38:31;9.18;;;5.40;;
56183;SDS011;42086;53.170;6.980;2022-12-20T04:40:57;9.60;;;5.05;;
56183;SDS011;42086;53.170;6.980;2022-12-20T04:43:23;7.65;;;5.13;;
56183;SDS011;42086;53.170;6.980;2022-12-20T04:45:50;10.32;;;5.28;;
56183;SDS011;42086;53.170;6.980;2022-12-20T04:48:17;6.45;;;4.97;;
56183;SDS011;42086;53.170;6.980;2022-12-20T04:50:46;7.28;;;4.82;;
56183;SDS011;42086;53.170;6.980;2022-12-20T04:53:16;9.32;;;5.82;;
56183;SDS011;42086;53.170;6.980;2022-12-20T04:56:00;7.90;;;5.07;;
56183;SDS011;42086;53.170;6.980;2022-12-20T04:58:26;8.75;;;5.30;;
56183;SDS011;42086;53.170;6.980;2022-12-20T05:00:53;11.18;;;5.57;;
56183;SDS011;42086;53.170;6.980;2022-12-20T05:03:19;9.32;;;5.95;;
56183;SDS011;42086;53.170;6.980;2022-12-20T05:05:48;8.45;;;5.78;;
56183;SDS011;42086;53.170;6.980;2022-12-20T05:08:14;10.52;;;5.13;;
56183;SDS011;42086;53.170;6.980;2022-12-20T05:10:40;9.23;;;5.80;;
56183;SDS011;42086;53.170;6.980;2022-12-20T05:13:06;8.82;;;4.57;;
56183;SDS011;42086;53.170;6.980;2022-12-20T05:15:32;8.55;;;5.25;;
56183;SDS011;42086;53.170;6.980;2022-12-20T05:17:58;8.60;;;5.38;;
56183;SDS011;42086;53.170;6.980;2022-12-20T05:20:28;6.20;;;4.28;;
56183;SDS011;42086;53.170;6.980;2022-12-20T05:22:55;5.38;;;2.97;;
56183;SDS011;42086;53.170;6.980;2022-12-20T05:25:47;7.97;;;4.68;;
56183;SDS011;42086;53.170;6.980;2022-12-20T05:28:52;8.52;;;5.43;;
56183;SDS011;42086;53.170;6.980;2022-12-20T05:31:18;10.25;;;5.40;;
56183;SDS011;42086;53.170;6.980;2022-12-20T05:33:44;10.80;;;4.97;;
56183;SDS011;42086;53.170;6.980;2022-12-20T05:36:10;6.15;;;4.20;;
56183;SDS011;42086;53.170;6.980;2022-12-20T05:38:36;8.57;;;4.22;;
56183;SDS011;42086;53.170;6.980;2022-12-20T05:41:02;10.55;;;5.43;;
56183;SDS011;42086;53.170;6.980;2022-12-20T05:43:29;7.53;;;5.30;;
56183;SDS011;42086;53.170;6.980;2022-12-20T05:45:55;8.95;;;5.45;;
56183;SDS011;42086;53.170;6.980;2022-12-20T05:48:21;7.15;;;5.63;;
56183;SDS011;42086;53.170;6.980;2022-12-20T05:50:47;7.95;;;4.70;;
56183;SDS011;42086;53.170;6.980;2022-12-20T05:53:13;8.50;;;5.13;;
56183;SDS011;42086;53.170;6.980;2022-12-20T05:55:44;7.68;;;4.75;;
56183;SDS011;42086;53.170;6.980;2022-12-20T05:58:12;9.18;;;4.85;;
56183;SDS011;42086;53.170;6.980;2022-12-20T06:00:39;7.20;;;5.25;;
56183;SDS011;42086;53.170;6.980;2022-12-20T06:03:06;8.75;;;5.03;;
56183;SDS011;42086;53.170;6.980;2022-12-20T06:05:33;7.43;;;4.20;;
56183;SDS011;42086;53.170;6.980;2022-12-20T06:08:01;8.35;;;4.80;;
56183;SDS011;42086;53.170;6.980;2022-12-20T06:10:27;5.93;;;4.43;;
56183;SDS011;42086;53.170;6.980;2022-12-20T06:12:53;6.75;;;4.50;;
56183;SDS011;42086;53.170;6.980;2022-12-20T06:15:18;7.93;;;4.20;;
56183;SDS011;42086;53.170;6.980;2022-12-20T06:17:44;7.35;;;4.25;;
56183;SDS011;42086;53.170;6.980;2022-12-20T06:20:10;6.22;;;4.60;;
56183;SDS011;42086;53.170;6.980;2022-12-20T06:22:36;4.88;;;3.53;;
56183;SDS011;42086;53.170;6.980;2022-12-20T06:25:03;5.75;;;3.97;;
56183;SDS011;42086;53.170;6.980;2022-12-20T06:27:29;7.13;;;4.60;;
56183;SDS011;42086;53.170;6.980;2022-12-20T06:29:55;7.43;;;4.63;;
56183;SDS011;42086;53.170;6.980;2022-12-20T06:32:21;7.50;;;3.78;;
56183;SDS011;42086;53.170;6.980;2022-12-20T06:34:46;6.60;;;3.80;;
56183;SDS011;42086;53.170;6.980;2022-12-20T06:37:12;7.03;;;4.05;;
56183;SDS011;42086;53.170;6.980;2022-12-20T06:39:38;7.13;;;4.40;;
56183;SDS011;42086;53.170;6.980;2022-12-20T06:42:04;7.10;;;3.75;;
56183;SDS011;42086;53.170;6.980;2022-12-20T06:44:31;6.47;;;4.20;;
56183;SDS011;42086;53.170;6.980;2022-12-20T06:46:56;6.88;;;3.90;;
56183;SDS011;42086;53.170;6.980;2022-12-20T06:49:22;7.82;;;3.90;;
56183;SDS011;42086;53.170;6.980;2022-12-20T06:51:48;7.53;;;4.05;;
56183;SDS011;42086;53.170;6.980;2022-12-20T06:54:14;6.15;;;3.67;;
56183;SDS011;42086;53.170;6.980;2022-12-20T06:56:39;6.72;;;3.92;;
56183;SDS011;42086;53.170;6.980;2022-12-20T06:59:05;9.10;;;4.20;;
56183;SDS011;42086;53.170;6.980;2022-12-20T07:01:31;6.75;;;4.03;;
56183;SDS011;42086;53.170;6.980;2022-12-20T07:03:56;5.82;;;3.92;;
56183;SDS011;42086;53.170;6.980;2022-12-20T07:06:22;6.50;;;4.43;;
56183;SDS011;42086;53.170;6.980;2022-12-20T07:08:48;10.70;;;4.80;;
56183;SDS011;42086;53.170;6.980;2022-12-20T07:11:14;7.75;;;4.45;;
56183;SDS011;42086;53.170;6.980;2022-12-20T07:13:39;7.68;;;4.95;;
56183;SDS011;42086;53.170;6.980;2022-12-20T07:16:05;8.45;;;5.82;;
56183;SDS011;42086;53.170;6.980;2022-12-20T07:18:31;9.68;;;5.57;;
56183;SDS011;42086;53.170;6.980;2022-12-20T07:20:59;9.18;;;5.53;;
56183;SDS011;42086;53.170;6.980;2022-12-20T07:23:26;7.72;;;4.57;;
56183;SDS011;42086;53.170;6.980;2022-12-20T07:25:56;10.48;;;5.78;;
56183;SDS011;42086;53.170;6.980;2022-12-20T07:28:24;8.75;;;5.45;;
56183;SDS011;42086;53.170;6.980;2022-12-20T07:30:51;11.55;;;6.18;;
56183;SDS011;42086;53.170;6.980;2022-12-20T07:33:18;12.02;;;6.60;;
56183;SDS011;42086;53.170;6.980;2022-12-20T07:35:44;10.20;;;6.28;;
56183;SDS011;42086;53.170;6.980;2022-12-20T07:38:13;11.02;;;5.93;;
56183;SDS011;42086;53.170;6.980;2022-12-20T07:40:40;9.38;;;6.43;;
56183;SDS011;42086;53.170;6.980;2022-12-20T07:43:06;9.15;;;6.97;;
56183;SDS011;42086;53.170;6.980;2022-12-20T07:45:33;13.98;;;7.50;;
56183;SDS011;42086;53.170;6.980;2022-12-20T07:47:59;11.73;;;6.90;;
56183;SDS011;42086;53.170;6.980;2022-12-20T07:50:25;12.57;;;6.28;;
56183;SDS011;42086;53.170;6.980;2022-12-20T07:52:52;13.73;;;7.18;;
56183;SDS011;42086;53.170;6.980;2022-12-20T07:55:18;14.10;;;7.78;;
56183;SDS011;42086;53.170;6.980;2022-12-20T07:57:46;13.07;;;7.15;;
56183;SDS011;42086;53.170;6.980;2022-12-20T08:00:19;11.68;;;6.93;;
56183;SDS011;42086;53.170;6.980;2022-12-20T08:02:46;13.15;;;6.85;;
56183;SDS011;42086;53.170;6.980;2022-12-20T08:05:16;11.23;;;6.82;;
56183;SDS011;42086;53.170;6.980;2022-12-20T08:07:42;13.00;;;7.22;;
56183;SDS011;42086;53.170;6.980;2022-12-20T08:10:11;12.13;;;7.18;;
56183;SDS011;42086;53.170;6.980;2022-12-20T08:12:40;12.23;;;7.30;;
56183;SDS011;42086;53.170;6.980;2022-12-20T08:15:09;10.07;;;6.38;;
56183;SDS011;42086;53.170;6.980;2022-12-20T08:17:35;16.02;;;7.60;;
56183;SDS011;42086;53.170;6.980;2022-12-20T08:20:01;9.45;;;6.20;;
56183;SDS011;42086;53.170;6.980;2022-12-20T08:22:29;14.70;;;7.70;;
56183;SDS011;42086;53.170;6.980;2022-12-20T08:24:55;12.57;;;7.70;;
56183;SDS011;42086;53.170;6.980;2022-12-20T08:27:21;12.40;;;7.97;;
56183;SDS011;42086;53.170;6.980;2022-12-20T08:29:47;12.02;;;7.57;;
56183;SDS011;42086;53.170;6.980;2022-12-20T08:32:13;13.27;;;7.78;;
56183;SDS011;42086;53.170;6.980;2022-12-20T08:34:40;12.50;;;6.95;;
56183;SDS011;42086;53.170;6.980;2022-12-20T08:37:06;12.40;;;7.47;;
56183;SDS011;42086;53.170;6.980;2022-12-20T08:39:31;8.50;;;5.68;;
56183;SDS011;42086;53.170;6.980;2022-12-20T08:41:57;13.77;;;6.55;;
56183;SDS011;42086;53.170;6.980;2022-12-20T08:44:23;8.98;;;6.00;;
56183;SDS011;42086;53.170;6.980;2022-12-20T08:46:49;9.70;;;6.68;;
56183;SDS011;42086;53.170;6.980;2022-12-20T08:49:15;8.43;;;6.40;;
56183;SDS011;42086;53.170;6.980;2022-12-20T08:51:41;9.10;;;5.80;;
56183;SDS011;42086;53.170;6.980;2022-12-20T08:54:07;8.77;;;5.90;;
56183;SDS011;42086;53.170;6.980;2022-12-20T08:56:33;9.60;;;5.72;;
56183;SDS011;42086;53.170;6.980;2022-12-20T08:58:58;8.23;;;5.63;;
56183;SDS011;42086;53.170;6.980;2022-12-20T09:01:24;8.50;;;5.75;;
56183;SDS011;42086;53.170;6.980;2022-12-20T09:03:51;8.55;;;5.60;;
56183;SDS011;42086;53.170;6.980;2022-12-20T09:06:18;7.40;;;5.40;;
56183;SDS011;42086;53.170;6.980;2022-12-20T09:08:45;8.30;;;4.63;;
56183;SDS011;42086;53.170;6.980;2022-12-20T09:11:13;8.23;;;5.38;;
56183;SDS011;42086;53.170;6.980;2022-12-20T09:13:40;6.57;;;5.35;;
56183;SDS011;42086;53.170;6.980;2022-12-20T09:16:08;9.10;;;5.00;;
56183;SDS011;42086;53.170;6.980;2022-12-20T09:18:34;7.53;;;4.90;;
56183;SDS011;42086;53.170;6.980;2022-12-20T09:21:01;7.63;;;5.30;;
56183;SDS011;42086;53.170;6.980;2022-12-20T09:23:28;8.18;;;4.63;;
56183;SDS011;42086;53.170;6.980;2022-12-20T09:26:00;7.15;;;5.07;;
56183;SDS011;42086;53.170;6.980;2022-12-20T09:28:30;8.07;;;4.65;;
56183;SDS011;42086;53.170;6.980;2022-12-20T09:30:57;7.25;;;4.50;;
56183;SDS011;42086;53.170;6.980;2022-12-20T09:33:24;8.02;;;4.57;;
56183;SDS011;42086;53.170;6.980;2022-12-20T09:35:50;7.43;;;4.07;;
56183;SDS011;42086;53.170;6.980;2022-12-20T09:38:16;5.15;;;4.00;;
56183;SDS011;42086;53.170;6.980;2022-12-20T09:40:46;6.72;;;4.75;;
56183;SDS011;42086;53.170;6.980;2022-12-20T09:43:15;4.57;;;3.65;;
56183;SDS011;42086;53.170;6.980;2022-12-20T09:45:41;5.13;;;3.72;;
56183;SDS011;42086;53.170;6.980;2022-12-20T09:48:13;7.20;;;4.43;;
56183;SDS011;42086;53.170;6.980;2022-12-20T09:59:18;5.97;;;4.20;;
56183;SDS011;42086;53.170;6.980;2022-12-20T10:01:45;8.85;;;4.30;;
56183;SDS011;42086;53.170;6.980;2022-12-20T10:04:19;5.75;;;3.83;;
56183;SDS011;42086;53.170;6.980;2022-12-20T10:17:15;6.43;;;4.35;;
56183;SDS011;42086;53.170;6.980;2022-12-20T10:24:52;5.00;;;3.47;;
56183;SDS011;42086;53.170;6.980;2022-12-20T10:27:52;6.93;;;4.22;;
56183;SDS011;42086;53.170;6.980;2022-12-20T10:30:22;5.07;;;3.88;;
56183;SDS011;42086;53.170;6.980;2022-12-20T10:32:52;5.32;;;3.70;;
56183;SDS011;42086;53.170;6.980;2022-12-20T10:37:59;7.03;;;3.88;;
56183;SDS011;42086;53.170;6.980;2022-12-20T10:40:31;7.10;;;3.40;;
56183;SDS011;42086;53.170;6.980;2022-12-20T10:42:59;6.95;;;3.22;;
56183;SDS011;42086;53.170;6.980;2022-12-20T10:45:27;6.35;;;3.55;;
56183;SDS011;42086;53.170;6.980;2022-12-20T10:48:02;5.80;;;3.78;;
56183;SDS011;42086;53.170;6.980;2022-12-20T10:50:30;6.03;;;3.67;;
56183;SDS011;42086;53.170;6.980;2022-12-20T10:55:35;6.72;;;3.83;;
56183;SDS011;42086;53.170;6.980;2022-12-20T10:58:10;5.70;;;3.65;;
56183;SDS011;42086;53.170;6.980;2022-12-20T11:00:37;5.65;;;4.18;;
56183;SDS011;42086;53.170;6.980;2022-12-20T11:03:15;6.57;;;3.78;;
56183;SDS011;42086;53.170;6.980;2022-12-20T11:05:53;6.63;;;4.28;;
56183;SDS011;42086;53.170;6.980;2022-12-20T11:08:25;6.32;;;4.50;;
56183;SDS011;42086;53.170;6.980;2022-12-20T11:13:43;6.68;;;4.10;;
56183;SDS011;42086;53.170;6.980;2022-12-20T11:16:23;6.63;;;3.92;;
56183;SDS011;42086;53.170;6.980;2022-12-20T11:22:09;5.63;;;3.90;;
56183;SDS011;42086;53.170;6.980;2022-12-20T11:30:06;6.90;;;4.38;;
56183;SDS011;42086;53.170;6.980;2022-12-20T11:32:45;8.82;;;4.10;;
56183;SDS011;42086;53.170;6.980;2022-12-20T11:38:12;7.70;;;4.47;;
56183;SDS011;42086;53.170;6.980;2022-12-20T11:41:17;9.38;;;4.43;;
56183;SDS011;42086;53.170;6.980;2022-12-20T11:51:46;7.75;;;3.67;;
56183;SDS011;42086;53.170;6.980;2022-12-20T11:54:29;5.22;;;3.70;;
56183;SDS011;42086;53.170;6.980;2022-12-20T11:57:12;6.70;;;4.22;;
56183;SDS011;42086;53.170;6.980;2022-12-20T11:59:52;6.72;;;4.05;;
56183;SDS011;42086;53.170;6.980;2022-12-20T12:02:33;5.50;;;3.53;;
56183;SDS011;42086;53.170;6.980;2022-12-20T12:07:51;6.70;;;4.00;;
56183;SDS011;42086;53.170;6.980;2022-12-20T12:10:23;9.23;;;4.18;;
56183;SDS011;42086;53.170;6.980;2022-12-20T12:13:02;8.65;;;4.15;;
56183;SDS011;42086;53.170;6.980;2022-12-20T12:18:26;5.60;;;4.00;;
56183;SDS011;42086;53.170;6.980;2022-12-20T12:26:25;6.35;;;4.13;;
56183;SDS011;42086;53.170;6.980;2022-12-20T12:28:54;5.68;;;4.15;;
56183;SDS011;42086;53.170;6.980;2022-12-20T12:31:34;6.45;;;4.20;;
56183;SDS011;42086;53.170;6.980;2022-12-20T12:42:43;8.27;;;4.13;;
56183;SDS011;42086;53.170;6.980;2022-12-20T12:45:36;4.95;;;4.15;;
56183;SDS011;42086;53.170;6.980;2022-12-20T12:51:07;7.63;;;5.00;;
56183;SDS011;42086;53.170;6.980;2022-12-20T12:59:07;7.55;;;4.43;;
56183;SDS011;42086;53.170;6.980;2022-12-20T13:11:51;6.43;;;4.32;;
56183;SDS011;42086;53.170;6.980;2022-12-20T13:19:35;7.65;;;4.82;;
56183;SDS011;42086;53.170;6.980;2022-12-20T13:24:57;7.22;;;5.60;;
56183;SDS011;42086;53.170;6.980;2022-12-20T13:32:52;6.60;;;4.80;;
56183;SDS011;42086;53.170;6.980;2022-12-20T13:40:33;9.10;;;5.55;;
56183;SDS011;42086;53.170;6.980;2022-12-20T13:43:14;8.15;;;6.53;;
56183;SDS011;42086;53.170;6.980;2022-12-20T13:45:42;7.22;;;5.20;;
56183;SDS011;42086;53.170;6.980;2022-12-20T13:48:14;10.48;;;6.75;;
56183;SDS011;42086;53.170;6.980;2022-12-20T13:50:48;9.18;;;5.35;;
56183;SDS011;42086;53.170;6.980;2022-12-20T13:53:20;12.45;;;6.63;;
56183;SDS011;42086;53.170;6.980;2022-12-20T13:55:48;8.35;;;6.00;;
56183;SDS011;42086;53.170;6.980;2022-12-20T13:58:21;12.63;;;7.10;;
56183;SDS011;42086;53.170;6.980;2022-12-20T14:01:02;9.98;;;6.72;;
56183;SDS011;42086;53.170;6.980;2022-12-20T14:03:30;11.68;;;7.18;;
56183;SDS011;42086;53.170;6.980;2022-12-20T14:06:03;8.23;;;5.03;;
56183;SDS011;42086;53.170;6.980;2022-12-20T14:08:35;12.70;;;7.05;;
56183;SDS011;42086;53.170;6.980;2022-12-20T14:11:06;10.83;;;7.07;;
56183;SDS011;42086;53.170;6.980;2022-12-20T14:13:35;10.90;;;6.80;;
56183;SDS011;42086;53.170;6.980;2022-12-20T14:16:14;10.77;;;7.03;;
56183;SDS011;42086;53.170;6.980;2022-12-20T14:18:46;11.98;;;7.53;;
56183;SDS011;42086;53.170;6.980;2022-12-20T14:21:24;11.57;;;7.10;;
56183;SDS011;42086;53.170;6.980;2022-12-20T14:23:51;10.95;;;7.63;;
56183;SDS011;42086;53.170;6.980;2022-12-20T14:26:21;9.82;;;7.38;;
56183;SDS011;42086;53.170;6.980;2022-12-20T14:28:50;10.45;;;7.25;;
56183;SDS011;42086;53.170;6.980;2022-12-20T14:36:36;9.57;;;6.88;;
56183;SDS011;42086;53.170;6.980;2022-12-20T14:39:25;12.10;;;6.72;;
56183;SDS011;42086;53.170;6.980;2022-12-20T14:44:34;11.40;;;7.90;;
56183;SDS011;42086;53.170;6.980;2022-12-20T14:47:04;11.07;;;8.68;;
56183;SDS011;42086;53.170;6.980;2022-12-20T14:49:47;12.18;;;8.00;;
56183;SDS011;42086;53.170;6.980;2022-12-20T14:52:19;11.85;;;7.93;;
56183;SDS011;42086;53.170;6.980;2022-12-20T14:57:22;13.38;;;8.50;;
56183;SDS011;42086;53.170;6.980;2022-12-20T15:02:34;12.13;;;8.90;;
56183;SDS011;42086;53.170;6.980;2022-12-20T15:05:06;13.52;;;9.10;;
56183;SDS011;42086;53.170;6.980;2022-12-20T15:07:51;16.13;;;9.80;;
56183;SDS011;42086;53.170;6.980;2022-12-20T15:10:16;17.00;;;10.32;;
56183;SDS011;42086;53.170;6.980;2022-12-20T15:12:42;12.45;;;9.00;;
56183;SDS011;42086;53.170;6.980;2022-12-20T15:15:11;14.07;;;9.23;;
56183;SDS011;42086;53.170;6.980;2022-12-20T15:17:39;11.73;;;8.13;;
56183;SDS011;42086;53.170;6.980;2022-12-20T15:20:07;11.80;;;9.32;;
56183;SDS011;42086;53.170;6.980;2022-12-20T15:22:37;14.88;;;9.70;;
56183;SDS011;42086;53.170;6.980;2022-12-20T15:25:10;17.15;;;10.65;;
56183;SDS011;42086;53.170;6.980;2022-12-20T15:27:40;14.60;;;10.38;;
56183;SDS011;42086;53.170;6.980;2022-12-20T15:30:10;15.73;;;10.70;;
56183;SDS011;42086;53.170;6.980;2022-12-20T15:35:03;16.08;;;10.95;;
56183;SDS011;42086;53.170;6.980;2022-12-20T15:37:30;19.20;;;11.38;;
56183;SDS011;42086;53.170;6.980;2022-12-20T15:39:55;16.52;;;11.95;;
56183;SDS011;42086;53.170;6.980;2022-12-20T15:42:21;18.27;;;11.68;;
56183;SDS011;42086;53.170;6.980;2022-12-20T15:44:48;14.40;;;9.68;;
56183;SDS011;42086;53.170;6.980;2022-12-20T15:47:14;16.15;;;11.05;;
56183;SDS011;42086;53.170;6.980;2022-12-20T15:49:40;19.52;;;11.65;;
56183;SDS011;42086;53.170;6.980;2022-12-20T15:52:08;18.83;;;12.30;;
56183;SDS011;42086;53.170;6.980;2022-12-20T15:54:40;19.08;;;11.93;;
56183;SDS011;42086;53.170;6.980;2022-12-20T15:57:05;22.80;;;12.98;;
56183;SDS011;42086;53.170;6.980;2022-12-20T15:59:35;20.73;;;12.45;;
56183;SDS011;42086;53.170;6.980;2022-12-20T16:02:01;18.10;;;10.77;;
56183;SDS011;42086;53.170;6.980;2022-12-20T16:04:27;19.02;;;10.82;;
56183;SDS011;42086;53.170;6.980;2022-12-20T16:06:53;23.13;;;12.40;;
56183;SDS011;42086;53.170;6.980;2022-12-20T16:09:19;19.95;;;13.15;;
56183;SDS011;42086;53.170;6.980;2022-12-20T16:11:45;23.02;;;14.05;;
56183;SDS011;42086;53.170;6.980;2022-12-20T16:14:15;22.25;;;13.93;;
56183;SDS011;42086;53.170;6.980;2022-12-20T16:16:43;21.95;;;13.32;;
56183;SDS011;42086;53.170;6.980;2022-12-20T16:19:09;22.75;;;13.00;;
56183;SDS011;42086;53.170;6.980;2022-12-20T16:21:45;23.50;;;13.25;;
56183;SDS011;42086;53.170;6.980;2022-12-20T16:24:14;26.80;;;14.63;;
56183;SDS011;42086;53.170;6.980;2022-12-20T16:26:41;20.73;;;13.30;;
56183;SDS011;42086;53.170;6.980;2022-12-20T16:29:08;24.67;;;14.95;;
56183;SDS011;42086;53.170;6.980;2022-12-20T16:31:34;26.23;;;14.70;;
56183;SDS011;42086;53.170;6.980;2022-12-20T16:34:03;25.73;;;15.13;;
56183;SDS011;42086;53.170;6.980;2022-12-20T16:36:30;22.13;;;13.13;;
56183;SDS011;42086;53.170;6.980;2022-12-20T16:38:56;21.38;;;13.02;;
56183;SDS011;42086;53.170;6.980;2022-12-20T16:41:23;27.90;;;14.63;;
56183;SDS011;42086;53.170;6.980;2022-12-20T16:43:55;29.75;;;16.10;;
56183;SDS011;42086;53.170;6.980;2022-12-20T16:46:23;23.73;;;13.75;;
56183;SDS011;42086;53.170;6.980;2022-12-20T16:48:51;22.77;;;12.90;;
56183;SDS011;42086;53.170;6.980;2022-12-20T16:51:21;22.00;;;12.75;;
56183;SDS011;42086;53.170;6.980;2022-12-20T16:53:53;28.55;;;14.82;;
56183;SDS011;42086;53.170;6.980;2022-12-20T16:56:24;29.65;;;16.33;;
56183;SDS011;42086;53.170;6.980;2022-12-20T16:58:50;27.83;;;15.73;;
56183;SDS011;42086;53.170;6.980;2022-12-20T17:01:26;26.73;;;14.90;;
56183;SDS011;42086;53.170;6.980;2022-12-20T17:03:55;32.67;;;17.05;;
56183;SDS011;42086;53.170;6.980;2022-12-20T17:06:21;27.23;;;15.43;;
56183;SDS011;42086;53.170;6.980;2022-12-20T17:08:47;29.65;;;14.85;;
56183;SDS011;42086;53.170;6.980;2022-12-20T17:11:14;25.45;;;12.82;;
56183;SDS011;42086;53.170;6.980;2022-12-20T17:13:42;30.00;;;16.23;;